createdAt,value
2022-11-20T00:03:31.113Z,0
2022-11-20T00:08:37.201Z,0
2022-11-20T00:13:43.291Z,0
2022-11-20T00:18:49.391Z,0
2022-11-20T00:23:55.468Z,0
2022-11-20T00:29:01.552Z,0
2022-11-20T00:34:07.647Z,0
2022-11-20T00:39:13.741Z,0
2022-11-20T00:44:19.834Z,0
2022-11-20T00:54:31.016Z,0
2022-11-20T00:59:37.109Z,0
2022-11-20T01:04:43.193Z,0
2022-11-20T01:09:49.281Z,0
2022-11-20T01:14:55.402Z,0
2022-11-20T01:20:01.459Z,0
2022-11-20T01:25:07.552Z,0
2022-11-20T01:30:13.633Z,0
2022-11-20T01:35:19.727Z,0
2022-11-20T01:40:25.817Z,0
2022-11-20T01:45:31.900Z,0
2022-11-20T01:50:38.035Z,0
2022-11-20T01:55:44.088Z,0
2022-11-20T02:00:50.188Z,0
2022-11-20T02:05:56.267Z,0
2022-11-20T02:11:01.379Z,0
2022-11-20T02:16:07.471Z,0
2022-11-20T02:21:13.553Z,0
2022-11-20T02:26:19.649Z,0
2022-11-20T02:31:24.757Z,0
2022-11-20T02:36:30.851Z,0
2022-11-20T02:41:36.935Z,0
2022-11-20T02:46:43.029Z,0
2022-11-20T02:51:49.110Z,0
2022-11-20T02:56:55.208Z,0
2022-11-20T03:02:01.292Z,0
2022-11-20T03:07:07.378Z,0
2022-11-20T03:12:12.491Z,0
2022-11-20T03:17:18.575Z,0
2022-11-20T03:22:24.679Z,0
2022-11-20T03:27:30.754Z,0
2022-11-20T03:32:36.837Z,0
2022-11-20T03:37:42.937Z,0
2022-11-20T03:42:49.021Z,0
2022-11-20T03:47:55.106Z,0
2022-11-20T03:53:01.194Z,0
2022-11-20T03:58:07.288Z,0
2022-11-20T04:03:13.378Z,0
2022-11-20T04:08:19.467Z,0
2022-11-20T04:13:25.553Z,0
2022-11-20T04:18:31.639Z,0
2022-11-20T04:23:37.735Z,0
2022-11-20T04:28:43.827Z,0
2022-11-20T04:33:49.906Z,0
2022-11-20T04:38:55.993Z,0
2022-11-20T04:44:01.114Z,0
2022-11-20T04:49:07.204Z,0
2022-11-20T04:54:13.284Z,0
2022-11-20T04:59:19.381Z,0
2022-11-20T05:04:25.470Z,0
2022-11-20T05:09:31.552Z,0
2022-11-20T05:14:36.680Z,0
2022-11-20T05:19:41.769Z,0
2022-11-20T05:24:47.859Z,0
2022-11-20T05:29:53.955Z,0
2022-11-20T05:35:00.062Z,0
2022-11-20T05:40:06.121Z,0
2022-11-20T05:45:12.212Z,0
2022-11-20T05:50:18.315Z,0
2022-11-20T05:55:24.421Z,0
2022-11-20T06:00:30.483Z,0
2022-11-20T06:05:36.595Z,0
2022-11-20T06:10:42.672Z,0
2022-11-20T06:15:48.744Z,0
2022-11-20T06:20:54.838Z,0
2022-11-20T06:25:59.941Z,4
2022-11-20T06:31:06.037Z,4
2022-11-20T06:36:12.128Z,8
2022-11-20T06:41:18.217Z,8
2022-11-20T06:46:24.303Z,12
2022-11-20T06:51:30.390Z,16
2022-11-20T06:56:36.525Z,20
2022-11-20T07:01:42.578Z,20
2022-11-20T07:06:48.660Z,24
2022-11-20T07:11:54.746Z,28
2022-11-20T07:16:59.862Z,40
2022-11-20T07:22:05.947Z,52
2022-11-20T07:27:11.070Z,60
2022-11-20T07:32:17.158Z,52
2022-11-20T07:37:22.249Z,72
2022-11-20T07:42:28.345Z,80
2022-11-20T07:47:34.430Z,88
2022-11-20T07:52:40.527Z,92
2022-11-20T08:02:52.702Z,120
2022-11-20T08:07:58.815Z,124
2022-11-20T08:13:04.887Z,128
2022-11-20T08:18:10.986Z,136
2022-11-20T08:23:17.065Z,160
2022-11-20T08:28:23.168Z,180
2022-11-20T08:33:29.238Z,156
2022-11-20T08:38:35.333Z,128
2022-11-20T08:43:41.506Z,76
2022-11-20T08:48:47.575Z,108
2022-11-20T08:53:53.589Z,156
2022-11-20T08:58:58.708Z,184
2022-11-20T09:04:04.799Z,204
2022-11-20T09:09:11.010Z,200
2022-11-20T09:14:17.174Z,188
2022-11-20T09:24:28.357Z,108
2022-11-20T09:29:33.437Z,124
2022-11-20T09:34:39.444Z,152
2022-11-20T09:39:45.683Z,188
2022-11-20T09:44:51.745Z,192
2022-11-20T09:49:56.845Z,196
2022-11-20T09:55:02.911Z,188
2022-11-20T10:00:08.040Z,180
2022-11-20T10:05:14.165Z,160
2022-11-20T10:10:20.131Z,148
2022-11-20T10:15:26.226Z,148
2022-11-20T10:20:32.369Z,124
2022-11-20T10:25:38.525Z,184
2022-11-20T10:30:44.395Z,212
2022-11-20T10:35:50.680Z,280
2022-11-20T10:40:56.736Z,280
2022-11-20T10:46:02.832Z,324
2022-11-20T10:51:08.920Z,328
2022-11-20T10:56:14.844Z,356
2022-11-20T11:01:20.922Z,336
2022-11-20T11:11:32.122Z,396
2022-11-20T11:16:38.316Z,480
2022-11-20T11:21:44.510Z,440
2022-11-20T11:26:50.628Z,368
2022-11-20T11:31:56.638Z,364
2022-11-20T11:37:02.746Z,308
2022-11-20T11:42:07.858Z,264
2022-11-20T11:47:13.958Z,236
2022-11-20T11:52:19.062Z,260
2022-11-20T11:57:25.138Z,232
2022-11-20T12:02:31.051Z,248
2022-11-20T12:07:37.317Z,268
2022-11-20T12:12:43.386Z,272
2022-11-20T12:17:49.465Z,264
2022-11-20T12:22:55.595Z,232
2022-11-20T12:28:01.492Z,228
2022-11-20T12:33:07.730Z,192
2022-11-20T12:38:13.712Z,180
2022-11-20T12:43:19.901Z,188
2022-11-20T12:48:25.870Z,172
2022-11-20T12:53:32.128Z,152
2022-11-20T12:58:38.174Z,168
2022-11-20T13:03:44.251Z,164
2022-11-20T13:08:50.263Z,176
2022-11-20T13:13:56.368Z,148
2022-11-20T13:19:02.464Z,140
2022-11-20T13:24:07.535Z,140
2022-11-20T13:29:13.622Z,140
2022-11-20T13:34:18.832Z,132
2022-11-20T13:39:24.778Z,152
2022-11-20T13:44:30.996Z,144
2022-11-20T13:49:37.055Z,136
2022-11-20T13:54:43.080Z,92
2022-11-20T13:59:49.137Z,84
2022-11-20T14:04:54.366Z,92
2022-11-20T14:10:00.357Z,80
2022-11-20T14:15:06.530Z,76
2022-11-20T14:20:12.570Z,68
2022-11-20T14:25:17.660Z,60
2022-11-20T14:30:23.804Z,48
2022-11-20T14:35:29.919Z,24
2022-11-20T14:40:35.918Z,16
2022-11-20T14:45:42.019Z,12
2022-11-20T14:50:48.091Z,12
2022-11-20T14:55:54.244Z,8
2022-11-20T15:01:00.310Z,4
2022-11-20T15:06:05.397Z,4
2022-11-20T15:11:11.508Z,4
2022-11-20T15:16:17.603Z,0
2022-11-20T15:21:23.650Z,0
2022-11-20T15:26:29.784Z,0
2022-11-20T15:31:35.991Z,0
2022-11-20T15:36:42.047Z,0
2022-11-20T15:41:48.174Z,0
2022-11-20T15:46:54.207Z,0
2022-11-20T15:52:00.415Z,0
2022-11-20T15:57:06.387Z,0
2022-11-20T16:02:12.351Z,0
2022-11-20T16:07:18.488Z,0
2022-11-20T16:12:24.525Z,0
2022-11-20T16:17:30.615Z,0
2022-11-20T16:22:36.706Z,0
2022-11-20T16:27:42.795Z,0
2022-11-20T16:32:48.890Z,0
2022-11-20T16:37:55.044Z,0
2022-11-20T16:43:01.077Z,0
2022-11-20T16:48:07.168Z,0
2022-11-20T16:53:13.267Z,0
2022-11-20T16:58:18.434Z,0
2022-11-20T17:03:24.457Z,0
2022-11-20T17:08:30.598Z,0
2022-11-20T17:13:36.625Z,0
2022-11-20T17:18:42.744Z,0
2022-11-20T17:23:48.942Z,0
2022-11-20T17:28:53.907Z,0
2022-11-20T17:34:00.014Z,0
2022-11-20T17:39:06.090Z,0
2022-11-20T17:44:12.250Z,0
2022-11-20T17:49:18.305Z,0
2022-11-20T17:54:24.513Z,0
2022-11-20T17:59:30.529Z,0
2022-11-20T18:04:36.688Z,0
2022-11-20T18:09:42.681Z,0
2022-11-20T18:14:48.865Z,0
2022-11-20T18:19:54.866Z,0
2022-11-20T18:25:01.020Z,0
2022-11-20T18:30:07.159Z,0
2022-11-20T18:35:13.314Z,0
2022-11-20T18:40:18.368Z,0
2022-11-20T18:45:24.404Z,0
2022-11-20T18:50:30.451Z,0
2022-11-20T18:55:36.617Z,0
2022-11-20T19:00:42.609Z,0
2022-11-20T19:05:48.666Z,0
2022-11-20T19:10:53.839Z,0
2022-11-20T19:15:59.825Z,0
2022-11-20T19:21:05.904Z,0
2022-11-20T19:26:11.987Z,0
2022-11-20T19:31:17.260Z,0
2022-11-20T19:36:23.370Z,0
2022-11-20T19:41:29.482Z,0
2022-11-20T19:46:35.566Z,0
2022-11-20T19:51:41.459Z,0
2022-11-20T19:56:47.627Z,0
2022-11-20T20:01:53.811Z,0
2022-11-20T20:06:59.788Z,0
2022-11-20T20:12:05.007Z,0
2022-11-20T20:17:11.185Z,0
2022-11-20T20:22:16.184Z,0
2022-11-20T20:27:22.336Z,0
2022-11-20T20:32:28.397Z,0
2022-11-20T20:37:34.315Z,0
2022-11-20T20:42:40.489Z,0
2022-11-20T20:47:46.539Z,0
2022-11-20T20:52:52.713Z,0
2022-11-20T20:57:58.655Z,0
2022-11-20T21:03:04.744Z,0
2022-11-20T21:08:10.853Z,0
2022-11-20T21:13:16.924Z,0
2022-11-20T21:18:23.015Z,0
2022-11-20T21:23:29.109Z,0
2022-11-20T21:28:35.191Z,0
2022-11-20T21:33:41.294Z,0
2022-11-20T21:38:47.374Z,0
2022-11-20T21:43:53.460Z,0
2022-11-20T21:48:59.548Z,0
2022-11-20T21:54:05.634Z,0
2022-11-20T21:59:11.725Z,0
2022-11-20T22:04:16.830Z,0
2022-11-20T22:09:22.930Z,0
2022-11-20T22:14:29.019Z,0
2022-11-20T22:19:35.119Z,0
2022-11-20T22:24:41.194Z,0
2022-11-20T22:29:47.276Z,0
2022-11-20T22:34:53.373Z,0
2022-11-20T22:39:59.471Z,0
2022-11-20T22:45:05.558Z,0
2022-11-20T22:50:11.638Z,0
2022-11-20T22:55:17.729Z,0
2022-11-20T23:00:23.820Z,0
2022-11-20T23:05:29.915Z,0
2022-11-20T23:10:35.997Z,0
2022-11-20T23:15:42.082Z,0
2022-11-20T23:20:48.173Z,0
2022-11-20T23:25:54.267Z,0
2022-11-20T23:31:00.346Z,0
2022-11-20T23:36:06.454Z,0
2022-11-20T23:41:12.523Z,0
2022-11-20T23:46:18.626Z,0
2022-11-20T23:51:24.705Z,0
2022-11-20T23:56:30.788Z,0
